Weather forecast for Mishelevka (Мишелевка)

Russia, 412 m
N52.890, E103.197


Sounding

Red line — air temperature ˚C.
Blue line — thermal bubble temperature ˚C.
Green line — dew point temperature ˚C.
Wind speed is in meters per second.

Table forecast

GFS 0.25˚ model

temp. wind gust humid. clouds prec. press. hpbl
Mon25 00:00 -3 257.0 wsw 1 1 92 100 0.1 1019 21
03:00 -4 182.0 s 1 1 95 99 0.1 1019 21
06:00 -4 114.0 ese 2 3 96 99 0.1 1018 74
09:00 -4 124.0 se 4 8 96 94 0.2 1017 257
12:00 -1 133.0 se 3 5 93 100 0.1 1014 329
15:00 0 285.0 wnw 2 3 93 100 0.9 1013 312
18:00 1 319.0 nw 3 6 95 100 0.7 1014 487
21:00 -0 305.0 nw 4 10 92 100 2.0 1018 448
 
Tue26 00:00 -2 304.0 nw 6 12 87 100 0.2 1021 445
03:00 -3 314.0 nw 7 12 89 100 0.2 1024 558
06:00 -5 318.0 nw 7 13 89 98 0.1 1027 605
09:00 -6 321.0 nw 7 12 87 99 0.3 1031 673
12:00 -6 322.0 nw 7 10 73 61 0.0 1034 770
15:00 -4 327.0 nnw 6 9 69 30 0.0 1034 872
18:00 -4 329.0 nnw 5 8 71 0 0.0 1034 920
21:00 -7 317.0 nw 3 4 84 0 0.0 1037 72
 
Wed27 00:00 -8 305.0 nw 2 3 87 0 0.0 1039 27
03:00 -9 292.0 wnw 2 2 90 0 0.0 1039 22
06:00 -9 292.0 wnw 1 1 91 0 0.0 1039 21
09:00 -9 232.0 sw 1 1 92 2 0.0 1039 21
12:00 -5 166.0 sse 1 1 80 24 0.0 1036 330
15:00 -3 47.0 ne 0 0 69 61 0.0 1033 578
18:00 -2 28.0 nne 1 1 62 78 0.0 1031 529
21:00 -6 37.0 ne 2 2 78 40 0.0 1033 21
 
Thu28 00:00 -7 71.0 ene 1 1 80 0 0.0 1035 21
03:00 -8 123.0 ese 1 2 79 0 0.0 1034 21
06:00 -8 123.0 ese 2 3 82 0 0.0 1033 22
09:00 -8 119.0 ese 2 3 88 0 0.0 1032 84
12:00 -3 134.0 se 3 5 79 30 0.0 1029 323
15:00 1 180.0 s 1 1 66 65 0.0 1028 433
18:00 1 317.0 nw 4 8 70 100 0.0 1029 699
21:00 -2 293.0 wnw 2 3 85 100 0.0 1032 28
 
Fri29 00:00 -2 306.0 nw 4 11 87 49 0.0 1034 273
03:00 -4 304.0 nw 4 10 86 25 0.0 1035 287
06:00 -6 299.0 wnw 3 7 91 1 0.0 1036 173
09:00 -6 289.0 wnw 2 2 92 1 0.0 1036 60
12:00 -2 157.0 sse 0 0 77 0 0.0 1034 348
15:00 1 112.0 ese 2 2 62 0 0.0 1030 494
18:00 3 114.0 ese 4 5 55 0 0.0 1028 515
21:00 -0 119.0 ese 4 9 67 3 0.0 1027 186
 

0.008 s